Time;durP1;ratioP1;P1;durP2;ratioP2;P2;SDS_P1;SDS_P2;PMS_P1;PMS_P2;Temp;Humidity;BMP_temperature;BMP_pressure;BME280_temperature;BME280_humidity;BME280_pressure;Samples;Min_cycle;Max_cycle;Signal;HPM_P1;HPM_P2
2022/01/26 00:00:43;;;;;;;46.60;25.90;;;1.30;99.90;;;;;;5074440;28;20746;-59
2022/01/26 00:06:02;;;;;;;42.63;26.10;;;1.40;99.90;;;;;;5074785;28;20392;-60
2022/01/26 00:08:30;;;;;;;48.27;29.50;;;1.30;99.90;;;;;;5074456;28;20890;-60
2022/01/26 00:11:37;;;;;;;52.60;30.00;;;1.20;99.90;;;;;;5074212;28;20494;-60
2022/01/26 00:14:09;;;;;;;46.27;26.77;;;1.20;99.90;;;;;;5074709;28;20514;-58
2022/01/26 00:16:40;;;;;;;49.57;27.27;;;1.50;99.90;;;;;;5074568;28;20871;-57
2022/01/26 00:19:10;;;;;;;55.50;28.20;;;1.70;99.90;;;;;;5074275;28;20790;-57
2022/01/26 00:21:42;;;;;;;51.47;26.30;;;1.70;99.90;;;;;;5073837;28;20522;-58
2022/01/26 00:24:27;;;;;;;50.10;28.70;;;1.50;99.90;;;;;;5074260;28;20441;-58
2022/01/26 00:27:07;;;;;;;54.90;29.07;;;1.40;99.90;;;;;;5074056;28;20447;-58
2022/01/26 00:29:36;;;;;;;49.00;29.00;;;1.20;99.90;;;;;;5073831;28;20486;-58
2022/01/26 00:40:29;;;;;;;49.03;29.47;;;1.40;99.90;;;;;;5073242;28;20935;-58
2022/01/26 00:43:01;;;;;;;50.00;28.87;;;1.60;99.90;;;;;;5073743;28;20432;-58
2022/01/26 00:45:34;;;;;;;50.23;29.63;;;1.70;99.90;;;;;;5073489;28;20444;-58
2022/01/26 00:48:07;;;;;;;59.40;31.30;;;1.80;99.90;;;;;;5073763;28;20737;-58
2022/01/26 00:50:35;;;;;;;59.70;32.40;;;1.80;99.90;;;;;;5073725;28;20496;-57
2022/01/26 00:53:03;;;;;;;54.27;30.17;;;1.80;99.90;;;;;;5073681;28;20442;-58
2022/01/26 00:55:30;;;;;;;58.17;31.70;;;1.80;99.90;;;;;;5073650;28;20444;-58
2022/01/26 00:57:57;;;;;;;44.80;28.43;;;1.90;99.90;;;;;;5073539;28;20535;-57
2022/01/26 01:00:27;;;;;;;52.30;28.97;;;1.80;99.90;;;;;;5073198;28;20452;-57
2022/01/26 01:02:55;;;;;;;47.20;28.00;;;1.70;99.90;;;;;;5073086;28;20502;-58
2022/01/26 01:05:29;;;;;;;53.17;27.40;;;1.60;99.90;;;;;;5073415;28;20920;-58
2022/01/26 01:08:02;;;;;;;50.23;27.30;;;1.50;99.90;;;;;;5073121;28;20484;-57
2022/01/26 01:10:30;;;;;;;58.50;30.23;;;1.60;99.90;;;;;;5073268;28;20441;-57
2022/01/26 01:12:58;;;;;;;47.73;27.43;;;1.60;99.90;;;;;;5073355;28;20473;-57
2022/01/26 01:15:26;;;;;;;43.07;25.50;;;1.60;99.90;;;;;;5072862;28;20789;-57
2022/01/26 01:18:03;;;;;;;44.60;25.47;;;1.70;99.90;;;;;;5072975;28;20958;-57
2022/01/26 01:20:50;;;;;;;41.20;22.13;;;1.50;99.90;;;;;;5072957;28;20505;-57
2022/01/26 01:29:09;;;;;;;40.53;24.60;;;1.00;99.90;;;;;;5069884;28;20427;-57
2022/01/26 01:31:44;;;;;;;44.30;25.10;;;0.80;99.90;;;;;;5072676;28;20464;-57
2022/01/26 01:34:13;;;;;;;43.30;24.80;;;0.80;99.90;;;;;;5072696;28;20844;-57
2022/01/26 01:36:44;;;;;;;39.47;24.37;;;0.90;99.90;;;;;;5072479;28;21050;-57
2022/01/26 01:39:12;;;;;;;47.60;27.50;;;0.90;99.90;;;;;;5072810;28;20433;-57
2022/01/26 01:41:41;;;;;;;46.90;24.33;;;1.10;99.90;;;;;;5072364;28;20503;-58
2022/01/26 01:44:10;;;;;;;48.43;28.53;;;1.30;99.90;;;;;;5072466;28;20509;-58
2022/01/26 01:46:38;;;;;;;43.77;26.80;;;1.00;99.90;;;;;;5072528;28;20444;-58
2022/01/26 01:49:06;;;;;;;43.33;23.20;;;0.70;99.90;;;;;;5072563;28;20491;-58
2022/01/26 01:51:37;;;;;;;45.60;24.67;;;0.80;99.90;;;;;;5075856;28;20479;-58
2022/01/26 01:54:10;;;;;;;39.00;25.10;;;0.90;99.90;;;;;;5077086;28;20519;-58
2022/01/26 01:56:39;;;;;;;39.13;24.53;;;1.00;99.90;;;;;;5076927;28;20555;-58
2022/01/26 01:59:07;;;;;;;44.57;24.10;;;1.00;99.90;;;;;;5077140;28;20459;-57
2022/01/26 02:01:34;;;;;;;38.80;22.50;;;1.10;99.90;;;;;;5076407;28;20507;-57
2022/01/26 02:04:01;;;;;;;39.53;23.03;;;1.20;99.90;;;;;;5076631;28;20785;-57
2022/01/26 02:06:28;;;;;;;40.83;21.97;;;1.10;99.90;;;;;;5076495;28;20480;-58
2022/01/26 02:08:55;;;;;;;38.13;23.20;;;1.20;99.90;;;;;;5076464;28;20455;-58
2022/01/26 02:11:24;;;;;;;41.17;23.07;;;1.10;99.90;;;;;;5076376;28;20472;-57
2022/01/26 02:13:59;;;;;;;34.30;21.10;;;1.10;99.90;;;;;;5076294;28;20451;-58
2022/01/26 02:16:31;;;;;;;35.90;21.10;;;1.10;99.90;;;;;;5076537;28;20555;-58
2022/01/26 02:52:03;;;;;;;23.90;17.67;;;0.80;99.90;;;;;;5076134;28;20482;-57
2022/01/26 02:57:27;;;;;;;26.50;17.13;;;1.10;99.90;;;;;;5075960;28;20459;-57
2022/01/26 03:00:14;;;;;;;30.00;16.70;;;1.00;99.90;;;;;;5076626;28;20792;-58
2022/01/26 03:02:46;;;;;;;21.13;15.60;;;0.90;99.90;;;;;;5074302;28;20813;-58
2022/01/26 03:05:15;;;;;;;20.10;16.17;;;0.80;99.90;;;;;;5075481;28;20461;-57
2022/01/26 03:07:47;;;;;;;30.93;18.57;;;0.60;99.90;;;;;;5075422;28;20478;-57
2022/01/26 03:10:21;;;;;;;25.43;16.87;;;0.50;99.90;;;;;;5075811;28;20512;-58
2022/01/26 03:12:54;;;;;;;20.00;15.27;;;0.20;99.90;;;;;;5075383;28;20490;-58
2022/01/26 03:15:25;;;;;;;29.53;17.77;;;0.10;99.90;;;;;;5075212;28;20431;-58
2022/01/26 03:18:15;;;;;;;31.37;17.40;;;0.00;99.90;;;;;;5075914;28;20464;-57
2022/01/26 03:20:44;;;;;;;28.73;16.80;;;0.10;99.90;;;;;;5075566;28;20460;-58
2022/01/26 03:28:46;;;;;;;28.07;17.70;;;0.70;99.90;;;;;;5075433;28;20408;-58
2022/01/26 03:34:01;;;;;;;28.40;16.70;;;0.80;99.90;;;;;;5066101;28;20447;-58
2022/01/26 03:36:31;;;;;;;32.90;18.50;;;0.70;99.90;;;;;;5074685;28;20460;-58
2022/01/26 03:39:07;;;;;;;30.60;17.57;;;0.80;99.90;;;;;;5075751;28;20544;-57
2022/01/26 03:41:43;;;;;;;29.20;17.70;;;0.60;99.90;;;;;;5074626;28;20474;-58
2022/01/26 03:44:10;;;;;;;29.30;18.07;;;0.30;99.90;;;;;;5074995;28;20511;-57
2022/01/26 03:46:38;;;;;;;30.33;17.33;;;0.40;99.90;;;;;;5074547;28;20921;-58
2022/01/26 03:49:05;;;;;;;32.80;18.90;;;0.20;99.90;;;;;;5074801;28;20543;-58
2022/01/26 03:51:34;;;;;;;31.77;19.30;;;0.30;99.90;;;;;;5074897;28;20545;-57
2022/01/26 03:54:01;;;;;;;30.50;18.50;;;0.30;99.90;;;;;;5074398;28;20927;-58
2022/01/26 03:56:28;;;;;;;25.27;16.30;;;0.40;99.90;;;;;;5074272;28;20986;-58
2022/01/26 03:58:57;;;;;;;28.43;16.80;;;0.20;99.90;;;;;;5074259;28;20953;-58
2022/01/26 04:01:24;;;;;;;34.63;19.30;;;0.30;99.90;;;;;;5074376;28;20458;-58
2022/01/26 04:03:52;;;;;;;32.60;20.40;;;0.40;99.90;;;;;;5074224;28;20448;-57
2022/01/26 04:06:19;;;;;;;34.87;20.93;;;0.40;99.90;;;;;;5074417;28;20491;-58
2022/01/26 04:08:46;;;;;;;39.43;19.43;;;0.30;99.90;;;;;;5074171;28;20448;-58
2022/01/26 04:11:29;;;;;;;35.60;19.47;;;0.30;99.90;;;;;;5073992;28;20475;-57
2022/01/26 04:13:58;;;;;;;32.40;18.20;;;0.40;99.90;;;;;;5074792;28;20443;-58
2022/01/26 04:16:26;;;;;;;33.50;19.47;;;0.50;99.90;;;;;;5073852;28;20811;-58
2022/01/26 04:18:55;;;;;;;41.27;21.20;;;0.40;99.90;;;;;;5074253;28;20448;-58
2022/01/26 04:21:31;;;;;;;35.27;19.50;;;0.30;99.90;;;;;;5073859;28;20537;-58
2022/01/26 04:24:05;;;;;;;39.60;22.30;;;0.40;99.90;;;;;;5074786;28;20460;-58
2022/01/26 04:26:38;;;;;;;32.10;17.63;;;0.40;99.90;;;;;;5073897;28;20524;-58
2022/01/26 04:29:11;;;;;;;35.60;20.47;;;0.60;99.90;;;;;;5074624;28;20443;-58
2022/01/26 04:31:38;;;;;;;34.97;19.70;;;0.70;99.90;;;;;;5073722;28;20476;-58
2022/01/26 04:34:06;;;;;;;32.50;19.40;;;0.70;99.90;;;;;;5073664;28;20494;-58
2022/01/26 04:36:38;;;;;;;37.07;21.03;;;0.60;99.90;;;;;;5073925;28;20526;-58
2022/01/26 04:39:10;;;;;;;39.30;24.00;;;0.50;99.90;;;;;;5073680;28;20424;-58
2022/01/26 04:41:42;;;;;;;35.37;18.57;;;0.50;99.90;;;;;;5073754;28;20523;-58
2022/01/26 04:44:18;;;;;;;33.53;20.03;;;0.50;99.90;;;;;;5073398;28;20475;-57
2022/01/26 04:46:45;;;;;;;38.03;20.00;;;0.50;99.90;;;;;;5073780;28;20458;-58
2022/01/26 04:49:12;;;;;;;38.33;19.70;;;0.30;99.90;;;;;;5073702;28;20460;-58
2022/01/26 04:51:39;;;;;;;49.80;23.40;;;0.20;99.90;;;;;;5073859;28;20472;-58
2022/01/26 04:54:06;;;;;;;38.13;22.03;;;0.20;99.90;;;;;;5074298;28;20448;-58
2022/01/26 04:56:33;;;;;;;36.30;19.60;;;0.20;99.90;;;;;;5073213;28;20965;-58
2022/01/26 04:59:01;;;;;;;40.23;21.23;;;0.20;99.90;;;;;;5074333;28;20749;-58
2022/01/26 05:01:29;;;;;;;41.90;20.90;;;0.30;99.90;;;;;;5074058;28;20469;-58
2022/01/26 05:03:56;;;;;;;43.63;20.80;;;0.40;99.90;;;;;;5073243;28;20452;-58
2022/01/26 05:06:23;;;;;;;47.23;20.90;;;0.50;99.90;;;;;;5073080;28;20495;-58
2022/01/26 05:08:51;;;;;;;42.90;20.53;;;0.50;99.90;;;;;;5073055;28;20460;-58
2022/01/26 05:11:27;;;;;;;42.30;20.57;;;0.50;99.90;;;;;;5073031;28;20879;-58
2022/01/26 05:13:55;;;;;;;41.07;21.67;;;0.50;99.90;;;;;;5073089;28;20424;-57
2022/01/26 05:16:22;;;;;;;41.10;22.10;;;0.50;99.90;;;;;;5073271;28;20444;-58
2022/01/26 05:18:52;;;;;;;37.50;22.03;;;0.50;99.90;;;;;;5072912;28;20480;-58
2022/01/26 05:21:19;;;;;;;45.40;23.70;;;0.60;99.90;;;;;;5072442;28;20567;-58
2022/01/26 05:23:46;;;;;;;32.60;19.33;;;0.70;99.90;;;;;;5073030;28;20522;-58
2022/01/26 05:26:14;;;;;;;36.03;19.30;;;0.90;99.90;;;;;;5072193;28;20911;-58
2022/01/26 05:28:41;;;;;;;40.30;22.37;;;0.90;99.90;;;;;;5072821;28;20447;-58
2022/01/26 05:31:08;;;;;;;40.90;20.80;;;1.00;99.90;;;;;;5072674;28;20468;-58
2022/01/26 05:33:35;;;;;;;40.43;20.40;;;0.70;99.90;;;;;;5072997;28;20536;-57
2022/01/26 05:36:05;;;;;;;38.90;19.80;;;0.80;99.90;;;;;;5072835;28;20508;-57
2022/01/26 05:38:32;;;;;;;32.40;19.43;;;0.50;99.90;;;;;;5072577;28;20480;-57
2022/01/26 05:41:02;;;;;;;41.40;20.30;;;0.60;99.90;;;;;;5072943;28;20568;-57
2022/01/26 05:43:30;;;;;;;37.60;21.27;;;0.60;99.90;;;;;;5073010;28;20832;-59
2022/01/26 05:46:01;;;;;;;38.10;20.43;;;0.60;99.90;;;;;;5072698;28;20935;-58
2022/01/26 05:48:29;;;;;;;39.77;22.37;;;0.60;99.90;;;;;;5072931;28;20425;-58
2022/01/26 05:51:04;;;;;;;40.63;21.80;;;0.60;99.90;;;;;;5072304;28;20519;-58
2022/01/26 05:53:35;;;;;;;34.33;19.47;;;0.50;99.90;;;;;;5072945;28;20429;-58
2022/01/26 05:56:02;;;;;;;39.07;20.93;;;0.50;99.90;;;;;;5072938;28;20433;-58
2022/01/26 05:58:30;;;;;;;38.33;20.40;;;0.60;99.90;;;;;;5072668;28;20479;-58
2022/01/26 06:00:59;;;;;;;38.30;20.97;;;0.50;99.90;;;;;;5072574;28;20538;-58
2022/01/26 06:03:27;;;;;;;39.40;21.63;;;0.60;99.90;;;;;;5073054;28;20456;-58
2022/01/26 06:05:55;;;;;;;39.63;19.23;;;0.50;99.90;;;;;;5072522;28;20448;-57
2022/01/26 06:08:23;;;;;;;38.33;21.63;;;0.70;99.90;;;;;;5072473;28;20441;-58
2022/01/26 06:10:52;;;;;;;31.37;19.77;;;0.60;99.90;;;;;;5072542;28;20504;-58
2022/01/26 06:13:19;;;;;;;32.10;17.40;;;0.70;99.90;;;;;;5072641;28;20454;-58
2022/01/26 06:15:47;;;;;;;41.00;20.40;;;0.80;99.90;;;;;;5072732;28;20535;-58
2022/01/26 06:18:15;;;;;;;39.80;22.53;;;0.70;99.90;;;;;;5072341;28;20855;-58
2022/01/26 06:20:42;;;;;;;37.23;19.63;;;0.70;99.90;;;;;;5072478;28;20456;-58
2022/01/26 06:23:09;;;;;;;35.17;19.97;;;0.70;99.90;;;;;;5072143;28;20844;-58
2022/01/26 06:25:37;;;;;;;39.90;22.70;;;0.80;99.90;;;;;;5073082;28;20805;-59
2022/01/26 06:28:10;;;;;;;31.13;19.50;;;0.80;99.90;;;;;;5072512;28;20539;-60
2022/01/26 06:30:38;;;;;;;35.20;18.80;;;0.90;99.90;;;;;;5072798;28;20429;-58
2022/01/26 06:33:06;;;;;;;36.67;20.53;;;0.80;99.90;;;;;;5071728;28;20907;-58
2022/01/26 06:35:35;;;;;;;34.63;20.60;;;0.90;99.90;;;;;;5072128;28;20459;-58
2022/01/26 06:38:02;;;;;;;31.90;19.03;;;0.80;99.90;;;;;;5075684;28;20479;-58
2022/01/26 06:40:30;;;;;;;41.07;24.37;;;0.70;99.90;;;;;;5075956;28;20565;-58
2022/01/26 06:43:00;;;;;;;35.50;20.07;;;0.80;99.90;;;;;;5075914;28;20535;-58
2022/01/26 06:45:32;;;;;;;42.63;19.30;;;0.80;99.90;;;;;;5075725;28;20539;-58
2022/01/26 06:50:44;;;;;;;28.73;18.87;;;0.90;99.90;;;;;;5068026;28;20468;-58
2022/01/26 06:53:13;;;;;;;34.70;19.30;;;0.90;99.90;;;;;;5075291;28;20492;-58
2022/01/26 06:55:40;;;;;;;38.80;19.83;;;0.90;99.90;;;;;;5075400;28;20444;-58
2022/01/26 06:58:08;;;;;;;46.30;22.07;;;0.80;99.90;;;;;;5075495;28;20498;-58
2022/01/26 07:00:36;;;;;;;38.10;22.47;;;0.80;99.90;;;;;;5075517;28;20441;-58
2022/01/26 07:03:04;;;;;;;32.80;19.73;;;0.70;99.90;;;;;;5075644;28;20642;-58
2022/01/26 07:05:31;;;;;;;44.87;22.67;;;0.60;99.90;;;;;;5075444;28;20527;-58
2022/01/26 07:07:58;;;;;;;43.67;20.00;;;0.70;99.90;;;;;;5075452;28;20527;-59
2022/01/26 07:10:25;;;;;;;37.83;20.23;;;0.70;99.90;;;;;;5075117;28;20813;-58
2022/01/26 07:12:53;;;;;;;25.70;17.07;;;0.40;99.90;;;;;;5074969;28;20440;-58
2022/01/26 07:23:55;;;;;;;33.80;19.73;;;0.50;99.90;;;;;;5074948;28;20519;-58
2022/01/26 07:26:25;;;;;;;37.60;19.10;;;0.60;99.90;;;;;;5075129;28;20535;-58
2022/01/26 07:28:52;;;;;;;26.20;16.43;;;0.50;99.90;;;;;;5075883;28;20464;-58
2022/01/26 07:31:20;;;;;;;39.50;21.57;;;0.50;99.90;;;;;;5074770;28;20460;-58
2022/01/26 07:33:53;;;;;;;30.77;18.90;;;0.60;99.90;;;;;;5075009;28;20476;-58
2022/01/26 07:36:20;;;;;;;43.13;19.83;;;0.40;99.90;;;;;;5074953;28;20432;-58
2022/01/26 07:38:50;;;;;;;31.33;17.90;;;0.40;99.90;;;;;;5074547;28;20484;-58
2022/01/26 07:41:17;;;;;;;28.87;19.03;;;0.50;99.90;;;;;;5074379;28;20971;-58
2022/01/26 07:43:45;;;;;;;31.13;18.80;;;0.60;99.90;;;;;;5074591;28;20445;-58
2022/01/26 07:46:12;;;;;;;33.13;18.63;;;0.60;99.90;;;;;;5074316;28;20495;-58
2022/01/26 07:48:39;;;;;;;32.10;18.00;;;0.50;99.90;;;;;;5073719;28;20531;-58
2022/01/26 07:51:08;;;;;;;32.57;20.03;;;0.50;99.90;;;;;;5074564;28;20476;-58
2022/01/26 07:53:35;;;;;;;35.87;19.80;;;0.60;99.90;;;;;;5074499;28;20448;-58
2022/01/26 07:56:02;;;;;;;29.57;19.00;;;0.50;99.90;;;;;;5074161;28;20452;-58
2022/01/26 07:58:29;;;;;;;36.47;19.57;;;0.60;99.90;;;;;;5074586;28;20476;-57
2022/01/26 08:00:57;;;;;;;30.50;18.77;;;0.60;99.90;;;;;;5074088;28;20820;-57
2022/01/26 08:03:25;;;;;;;38.90;19.37;;;0.90;99.90;;;;;;5074466;28;20444;-57
2022/01/26 08:05:52;;;;;;;38.63;19.33;;;1.10;99.90;;;;;;5074321;28;20962;-57
2022/01/26 08:08:21;;;;;;;36.10;19.17;;;1.10;99.90;;;;;;5074597;28;20502;-58
2022/01/26 08:10:49;;;;;;;36.63;21.97;;;1.00;99.90;;;;;;5073985;28;20460;-57
2022/01/26 08:13:16;;;;;;;35.80;21.80;;;0.90;99.90;;;;;;5074271;28;20452;-57
2022/01/26 08:15:43;;;;;;;33.37;20.77;;;0.80;99.90;;;;;;5073844;28;20813;-57
2022/01/26 08:18:10;;;;;;;40.23;22.00;;;0.80;99.90;;;;;;5074504;28;20472;-58
2022/01/26 08:20:37;;;;;;;37.40;19.00;;;0.80;99.90;;;;;;5073647;28;20456;-57
2022/01/26 08:23:04;;;;;;;35.80;20.60;;;0.80;99.90;;;;;;5073513;28;20917;-57
2022/01/26 08:25:33;;;;;;;36.93;19.83;;;0.70;99.90;;;;;;5073919;28;20484;-57
2022/01/26 08:28:07;;;;;;;36.57;20.67;;;0.80;99.90;;;;;;5073840;28;20859;-58
2022/01/26 08:30:36;;;;;;;31.73;18.77;;;0.70;99.90;;;;;;5073485;28;20436;-57
2022/01/26 08:33:04;;;;;;;34.80;19.43;;;0.60;99.90;;;;;;5073237;28;20463;-60
2022/01/26 08:35:31;;;;;;;39.93;19.97;;;0.50;99.90;;;;;;5073734;28;20451;-58
2022/01/26 08:37:59;;;;;;;32.50;20.17;;;0.60;99.90;;;;;;5073236;28;20480;-57
2022/01/26 08:40:26;;;;;;;35.43;19.17;;;0.70;99.90;;;;;;5073511;28;20448;-57
2022/01/26 08:42:55;;;;;;;33.93;20.13;;;0.70;99.90;;;;;;5073582;28;20439;-58
2022/01/26 08:45:23;;;;;;;36.30;19.93;;;0.70;99.90;;;;;;5073359;28;20518;-58
2022/01/26 08:47:51;;;;;;;31.40;18.37;;;0.70;99.90;;;;;;5073567;28;20806;-58
2022/01/26 08:50:18;;;;;;;30.47;18.60;;;0.80;99.90;;;;;;5073176;28;20460;-58
2022/01/26 08:52:45;;;;;;;39.10;19.77;;;0.80;99.90;;;;;;5072990;28;20480;-58
2022/01/26 08:55:13;;;;;;;42.93;21.03;;;0.60;99.90;;;;;;5073459;28;20429;-58
2022/01/26 08:57:40;;;;;;;41.57;20.50;;;0.50;99.90;;;;;;5073152;28;20444;-57
2022/01/26 09:00:10;;;;;;;37.10;20.50;;;0.60;99.90;;;;;;5072271;28;20483;-58
2022/01/26 09:02:37;;;;;;;36.77;18.10;;;0.70;99.90;;;;;;5073083;28;20518;-57
2022/01/26 09:05:08;;;;;;;43.80;23.33;;;0.60;99.90;;;;;;5073021;28;20879;-57
2022/01/26 09:07:35;;;;;;;33.30;19.53;;;0.70;99.90;;;;;;5073595;28;20540;-58
2022/01/26 09:10:03;;;;;;;40.27;21.07;;;0.60;99.90;;;;;;5073223;28;20484;-58
2022/01/26 09:12:33;;;;;;;37.53;20.63;;;0.70;99.90;;;;;;5072647;28;20472;-58
2022/01/26 09:15:04;;;;;;;40.70;21.43;;;0.70;99.90;;;;;;5072776;28;20440;-58
2022/01/26 09:17:38;;;;;;;41.50;20.07;;;0.80;99.90;;;;;;5072853;28;20445;-58
2022/01/26 09:20:07;;;;;;;35.07;18.83;;;0.80;99.90;;;;;;5072897;28;20432;-57
2022/01/26 09:22:34;;;;;;;46.97;22.63;;;0.80;99.90;;;;;;5072581;28;20487;-58
2022/01/26 09:25:02;;;;;;;37.87;20.70;;;0.90;99.90;;;;;;5072951;28;20533;-57
2022/01/26 09:27:29;;;;;;;40.93;21.17;;;1.00;99.90;;;;;;5072600;28;20547;-58
2022/01/26 09:29:56;;;;;;;38.30;20.47;;;1.20;99.90;;;;;;5072815;28;20469;-58
2022/01/26 09:32:24;;;;;;;38.83;19.60;;;1.20;99.90;;;;;;5072592;28;20456;-58
2022/01/26 09:34:53;;;;;;;34.17;18.83;;;1.20;99.90;;;;;;5072784;28;20447;-58
2022/01/26 09:37:20;;;;;;;39.77;21.10;;;1.20;99.90;;;;;;5072778;28;20466;-58
2022/01/26 09:39:49;;;;;;;36.67;18.97;;;1.00;99.90;;;;;;5072675;28;20484;-57
2022/01/26 09:42:17;;;;;;;40.03;19.63;;;1.10;99.90;;;;;;5072603;28;20494;-57
2022/01/26 09:44:45;;;;;;;35.90;18.67;;;1.00;99.90;;;;;;5072631;28;20444;-57
2022/01/26 09:47:13;;;;;;;33.47;20.63;;;0.90;99.90;;;;;;5072513;28;20487;-58
2022/01/26 09:49:40;;;;;;;34.20;19.07;;;1.00;99.90;;;;;;5072290;28;20594;-58
2022/01/26 09:52:21;;;;;;;37.90;21.97;;;1.10;99.90;;;;;;5072556;28;20924;-58
2022/01/26 09:54:49;;;;;;;35.97;20.80;;;1.20;99.90;;;;;;5072461;28;20439;-58
2022/01/26 09:57:16;;;;;;;34.80;19.87;;;1.20;99.90;;;;;;5072651;28;20455;-59
2022/01/26 09:59:43;;;;;;;35.47;19.03;;;1.20;99.90;;;;;;5072203;28;20482;-57
2022/01/26 10:02:21;;;;;;;34.67;20.03;;;1.30;99.90;;;;;;5072283;28;20464;-58
2022/01/26 10:04:55;;;;;;;32.20;19.83;;;1.40;99.90;;;;;;5072506;28;20460;-58
2022/01/26 10:07:28;;;;;;;38.43;19.97;;;1.70;99.90;;;;;;5072745;28;20433;-59
2022/01/26 10:10:05;;;;;;;44.00;22.90;;;1.60;99.90;;;;;;5072662;28;20452;-58
2022/01/26 10:15:32;;;;;;;34.27;17.23;;;1.50;99.90;;;;;;5076280;28;20408;-58
2022/01/26 10:18:06;;;;;;;37.50;19.07;;;1.50;99.90;;;;;;5076172;28;20447;-58
2022/01/26 10:20:41;;;;;;;31.10;18.20;;;1.40;99.90;;;;;;5076123;28;20956;-58
2022/01/26 10:23:13;;;;;;;34.73;19.07;;;1.50;99.90;;;;;;5075686;28;20879;-58
2022/01/26 10:25:41;;;;;;;34.70;18.60;;;1.40;99.90;;;;;;5076021;28;20899;-58
2022/01/26 10:28:11;;;;;;;30.37;18.23;;;1.40;99.90;;;;;;5076146;28;20531;-58
2022/01/26 10:30:44;;;;;;;37.67;17.37;;;1.40;99.90;;;;;;5075828;28;20910;-59
2022/01/26 10:33:12;;;;;;;33.10;17.60;;;1.60;99.90;;;;;;5076279;28;20490;-60
2022/01/26 10:35:39;;;;;;;33.93;19.50;;;1.70;99.90;;;;;;5076067;28;20452;-58
2022/01/26 10:38:07;;;;;;;27.57;17.83;;;1.70;99.90;;;;;;5075799;28;20444;-58
2022/01/26 10:40:39;;;;;;;28.73;15.57;;;1.60;99.90;;;;;;5075785;28;20450;-58
2022/01/26 10:43:11;;;;;;;33.67;21.07;;;1.60;99.90;;;;;;5075632;28;20429;-58
2022/01/26 10:48:37;;;;;;;32.80;18.20;;;1.60;99.90;;;;;;5072022;28;20425;-59
2022/01/26 10:54:04;;;;;;;29.93;17.20;;;1.70;99.90;;;;;;5075613;28;20910;-60
2022/01/26 10:56:32;;;;;;;35.80;19.63;;;1.60;99.90;;;;;;5076044;28;20429;-60
2022/01/26 10:59:00;;;;;;;35.10;17.57;;;1.70;99.90;;;;;;5076149;28;20490;-61
2022/01/26 11:01:28;;;;;;;27.63;18.80;;;1.90;99.90;;;;;;5075856;28;20473;-59
2022/01/26 11:03:55;;;;;;;27.20;16.83;;;1.90;99.90;;;;;;5075986;28;20450;-59
2022/01/26 11:06:22;;;;;;;25.13;15.60;;;1.80;99.90;;;;;;5076074;28;20453;-59
2022/01/26 11:08:51;;;;;;;30.37;18.30;;;1.60;99.90;;;;;;5075536;28;20472;-60
2022/01/26 11:11:23;;;;;;;31.93;18.43;;;1.60;99.90;;;;;;5075637;28;20455;-59
2022/01/26 11:13:51;;;;;;;35.50;19.77;;;1.70;99.90;;;;;;5075557;28;20455;-60
2022/01/26 11:16:19;;;;;;;41.67;21.33;;;1.70;99.90;;;;;;5075611;28;20445;-59
2022/01/26 11:18:49;;;;;;;43.30;23.17;;;1.90;99.90;;;;;;5075642;28;20475;-59
2022/01/26 11:21:33;;;;;;;28.47;18.73;;;1.90;99.90;;;;;;5075216;28;20480;-60
2022/01/26 11:24:12;;;;;;;41.80;22.00;;;1.80;99.90;;;;;;5074515;28;20493;-59
2022/01/26 11:26:41;;;;;;;42.10;21.97;;;1.70;99.90;;;;;;5075472;28;20452;-59
2022/01/26 11:29:25;;;;;;;31.37;19.70;;;1.70;99.90;;;;;;5075190;28;20445;-60
2022/01/26 11:32:05;;;;;;;37.10;21.30;;;1.80;99.90;;;;;;5075540;28;20472;-60
2022/01/26 11:34:34;;;;;;;40.80;23.60;;;1.90;99.90;;;;;;5076376;28;20531;-60
2022/01/26 11:37:04;;;;;;;48.23;23.70;;;1.70;99.90;;;;;;5075434;28;20457;-60
2022/01/26 11:42:32;;;;;;;48.97;23.20;;;1.60;99.90;;;;;;5051954;28;20455;-60
2022/01/26 11:45:13;;;;;;;43.90;23.10;;;1.40;99.90;;;;;;5075096;28;20440;-60
2022/01/26 11:47:42;;;;;;;40.00;23.10;;;1.50;99.90;;;;;;5074452;28;20482;-60
2022/01/26 11:50:14;;;;;;;42.67;20.43;;;1.80;99.90;;;;;;5074851;28;20463;-60
2022/01/26 11:52:41;;;;;;;38.97;20.43;;;1.80;99.90;;;;;;5074813;28;20762;-60
2022/01/26 11:55:27;;;;;;;41.50;21.10;;;1.90;99.90;;;;;;5074494;28;20446;-60
2022/01/26 11:57:55;;;;;;;40.50;21.20;;;1.70;99.90;;;;;;5074541;28;20448;-59
2022/01/26 12:00:43;;;;;;;36.80;19.50;;;1.80;99.90;;;;;;5074491;28;20483;-60
2022/01/26 12:03:24;;;;;;;37.20;20.00;;;1.80;99.90;;;;;;5075247;28;20435;-59
2022/01/26 12:05:56;;;;;;;37.17;19.80;;;1.80;99.90;;;;;;5074002;28;20949;-59
2022/01/26 12:08:38;;;;;;;41.63;19.33;;;1.80;99.90;;;;;;5073680;28;20477;-59
2022/01/26 12:11:11;;;;;;;30.83;20.03;;;1.80;99.90;;;;;;5073999;28;20601;-58
2022/01/26 12:13:39;;;;;;;41.83;21.00;;;1.80;99.90;;;;;;5073629;28;20436;-59
2022/01/26 12:16:14;;;;;;;40.60;21.27;;;1.80;99.90;;;;;;5073678;28;20452;-59
2022/01/26 12:18:49;;;;;;;37.60;18.97;;;1.70;99.90;;;;;;5073870;28;20459;-59
2022/01/26 12:33:04;;;;;;;30.63;18.23;;;1.60;99.90;;;;;;5073564;28;20455;-58
2022/01/26 12:35:40;;;;;;;34.90;19.27;;;1.50;99.90;;;;;;5073563;28;20528;-59
2022/01/26 12:38:14;;;;;;;32.90;17.77;;;1.60;99.90;;;;;;5073719;28;20451;-58
2022/01/26 12:43:35;;;;;;;33.47;19.77;;;1.70;99.90;;;;;;5073295;28;20404;-59
2022/01/26 12:46:03;;;;;;;31.93;18.00;;;1.80;99.90;;;;;;5073406;28;20872;-58
2022/01/26 12:48:34;;;;;;;35.60;19.17;;;1.90;99.90;;;;;;5073290;28;20444;-59
2022/01/26 12:51:03;;;;;;;37.03;18.07;;;1.80;99.90;;;;;;5073266;28;20983;-58
2022/01/26 12:53:32;;;;;;;44.20;19.00;;;1.80;99.90;;;;;;5072843;28;20453;-58
2022/01/26 12:56:04;;;;;;;33.57;18.00;;;1.90;99.90;;;;;;5073327;28;20503;-58
2022/01/26 12:58:33;;;;;;;34.03;18.47;;;1.90;99.90;;;;;;5073404;28;20429;-58
2022/01/26 13:01:02;;;;;;;34.77;21.13;;;1.80;99.90;;;;;;5073266;28;20488;-58
2022/01/26 13:03:35;;;;;;;31.23;17.53;;;1.70;99.90;;;;;;5073045;28;20491;-59
2022/01/26 13:06:11;;;;;;;33.07;18.60;;;1.90;99.90;;;;;;5073449;28;20531;-58
2022/01/26 13:08:46;;;;;;;30.10;18.37;;;2.00;99.90;;;;;;5072756;28;20531;-58
2022/01/26 13:11:14;;;;;;;33.23;16.40;;;2.00;99.90;;;;;;5072639;28;20468;-58
2022/01/26 13:13:41;;;;;;;35.90;18.70;;;1.90;99.90;;;;;;5072958;28;20459;-58
2022/01/26 13:16:16;;;;;;;30.23;17.60;;;1.90;99.90;;;;;;5072733;28;20444;-59
2022/01/26 13:19:12;;;;;;;29.93;17.27;;;1.70;99.90;;;;;;5072812;28;20934;-59
2022/01/26 13:24:34;;;;;;;24.30;15.87;;;1.80;99.90;;;;;;5070963;28;20439;-59
2022/01/26 13:27:14;;;;;;;32.70;19.97;;;1.70;99.90;;;;;;5072779;28;20428;-58
2022/01/26 13:29:53;;;;;;;36.40;18.80;;;1.70;99.90;;;;;;5073052;28;20436;-58
2022/01/26 13:38:03;;;;;;;37.30;19.60;;;2.00;99.90;;;;;;5070573;28;20464;-59
2022/01/26 13:40:45;;;;;;;35.03;18.40;;;1.90;99.90;;;;;;5072677;28;20551;-59
2022/01/26 13:44:06;;;;;;;33.80;20.23;;;1.90;99.90;;;;;;5073170;28;20532;-58
2022/01/26 13:52:18;;;;;;;36.97;19.20;;;1.60;99.90;;;;;;5072863;28;20456;-58
2022/01/26 13:55:14;;;;;;;28.97;16.70;;;1.70;99.90;;;;;;5072175;28;20442;-58
2022/01/26 13:57:50;;;;;;;28.70;16.23;;;1.80;99.90;;;;;;5072529;28;20451;-58
2022/01/26 14:00:20;;;;;;;30.30;16.37;;;1.60;99.90;;;;;;5072659;28;20468;-57
2022/01/26 14:02:51;;;;;;;31.50;16.83;;;1.70;99.90;;;;;;5072101;28;20471;-61
2022/01/26 14:05:19;;;;;;;29.57;17.73;;;1.70;99.90;;;;;;5072439;28;20440;-58
2022/01/26 14:07:47;;;;;;;29.00;16.67;;;1.60;99.90;;;;;;5072369;28;20451;-58
2022/01/26 14:10:15;;;;;;;26.10;14.23;;;1.60;99.90;;;;;;5072749;28;20440;-58
2022/01/26 14:12:47;;;;;;;29.77;17.83;;;1.60;99.90;;;;;;5072494;28;20500;-58
2022/01/26 14:15:19;;;;;;;25.67;14.00;;;1.70;99.90;;;;;;5072399;28;20498;-57
2022/01/26 14:18:01;;;;;;;23.97;12.83;;;1.70;99.90;;;;;;5072740;28;20549;-58
2022/01/26 14:20:48;;;;;;;33.33;15.27;;;1.60;99.90;;;;;;5072325;28;20566;-57
2022/01/26 14:26:00;;;;;;;19.60;14.37;;;1.40;99.90;;;;;;5064918;28;20432;-58
2022/01/26 14:28:33;;;;;;;26.67;16.20;;;1.50;99.90;;;;;;5072141;28;20930;-58
2022/01/26 14:31:21;;;;;;;28.33;14.20;;;1.30;99.90;;;;;;5072104;28;20966;-58
2022/01/26 14:37:01;;;;;;;30.43;16.57;;;1.30;99.90;;;;;;5054996;28;20908;-57
2022/01/26 14:40:14;;;;;;;31.90;16.13;;;1.30;99.90;;;;;;5072061;28;20432;-57
2022/01/26 14:51:00;;;;;;;21.43;14.73;;;1.10;99.90;;;;;;5072278;28;20543;-58
2022/01/26 15:00:02;;;;;;;29.07;13.37;;;1.10;99.90;;;;;;5071542;28;20429;-58
2022/01/26 15:35:24;;;;;;;24.87;14.13;;;1.00;99.90;;;;;;5032938;28;20437;-58
2022/01/26 15:40:49;;;;;;;21.03;13.97;;;1.00;99.90;;;;;;5060431;28;20475;-58
2022/01/26 15:57:33;;;;;;;21.87;14.50;;;1.30;99.90;;;;;;5075472;28;20400;-59